createdAt,value
2019-05-23T00:00:53.165Z,10.39
2019-05-23T00:01:53.142Z,10.34
2019-05-23T00:02:53.144Z,10.33
2019-05-23T00:03:53.123Z,10.33
2019-05-23T00:04:53.126Z,10.30
2019-05-23T00:05:53.122Z,10.28
2019-05-23T00:06:53.095Z,10.24
2019-05-23T00:07:53.105Z,10.22
2019-05-23T00:08:53.084Z,10.21
2019-05-23T00:09:53.076Z,10.17
2019-05-23T00:10:53.047Z,10.12
2019-05-23T00:11:53.053Z,10.09
2019-05-23T00:12:53.076Z,10.06
2019-05-23T00:13:53.023Z,10.01
2019-05-23T00:14:53.016Z,9.99
2019-05-23T00:15:53.010Z,9.97
2019-05-23T00:16:53.006Z,9.96
2019-05-23T00:17:52.983Z,9.93
2019-05-23T00:18:52.968Z,9.94
2019-05-23T00:19:52.954Z,9.91
2019-05-23T00:20:52.956Z,9.88
2019-05-23T00:21:52.935Z,9.86
2019-05-23T00:22:52.952Z,9.85
2019-05-23T00:23:52.903Z,9.83
2019-05-23T00:24:52.901Z,9.82
2019-05-23T00:25:52.883Z,9.78
2019-05-23T00:26:52.890Z,9.75
2019-05-23T00:27:52.875Z,9.73
2019-05-23T00:29:08.770Z,9.71
2019-05-23T00:29:53.866Z,9.71
2019-05-23T00:30:52.844Z,9.73
2019-05-23T00:31:52.831Z,9.73
2019-05-23T00:32:52.813Z,9.73
2019-05-23T00:33:52.822Z,9.73
2019-05-23T00:34:52.791Z,9.73
2019-05-23T00:35:52.780Z,9.71
2019-05-23T00:36:52.778Z,9.68
2019-05-23T00:37:52.775Z,9.67
2019-05-23T00:38:52.773Z,9.64
2019-05-23T00:39:52.751Z,9.63
2019-05-23T00:40:52.731Z,9.63
2019-05-23T00:41:52.753Z,9.60
2019-05-23T00:42:52.711Z,9.60
2019-05-23T00:43:52.701Z,9.60
2019-05-23T00:44:52.716Z,9.57
2019-05-23T00:45:52.713Z,9.52
2019-05-23T00:46:52.671Z,9.49
2019-05-23T00:47:52.657Z,9.48
2019-05-23T00:48:52.671Z,9.43
2019-05-23T00:49:52.644Z,9.43
2019-05-23T00:50:52.631Z,9.42
2019-05-23T00:51:52.615Z,9.40
2019-05-23T00:52:52.600Z,9.40
2019-05-23T00:53:52.605Z,9.40
2019-05-23T00:54:52.600Z,9.40
2019-05-23T00:55:52.587Z,9.40
2019-05-23T00:56:52.570Z,9.40
2019-05-23T00:57:52.551Z,9.39
2019-05-23T00:58:52.577Z,9.39
2019-05-23T00:59:52.540Z,9.38
2019-05-23T01:00:52.521Z,9.38
2019-05-23T01:01:52.539Z,9.35
2019-05-23T01:02:52.490Z,9.32
2019-05-23T01:03:52.499Z,9.31
2019-05-23T01:04:52.480Z,9.27
2019-05-23T01:05:52.465Z,9.24
2019-05-23T01:06:52.442Z,9.23
2019-05-23T01:07:52.448Z,9.23
2019-05-23T01:08:52.449Z,9.23
2019-05-23T01:09:52.431Z,9.23
2019-05-23T01:10:52.422Z,9.21
2019-05-23T01:11:52.391Z,9.18
2019-05-23T01:12:52.389Z,9.15
2019-05-23T01:13:52.385Z,9.13
2019-05-23T01:14:52.404Z,9.12
2019-05-23T01:15:52.350Z,9.04
2019-05-23T01:16:52.340Z,9.02
2019-05-23T01:17:52.361Z,9.02
2019-05-23T01:18:52.363Z,9.01
2019-05-23T01:19:52.308Z,9.02
2019-05-23T01:20:52.314Z,9.04
2019-05-23T01:21:52.353Z,9.01
2019-05-23T01:22:52.292Z,8.99
2019-05-23T01:23:52.277Z,8.97
2019-05-23T01:24:52.273Z,8.97
2019-05-23T01:25:52.243Z,8.96
2019-05-23T01:26:52.249Z,8.94
2019-05-23T01:27:52.287Z,8.94
2019-05-23T01:28:52.217Z,8.94
2019-05-23T01:29:52.243Z,8.94
2019-05-23T01:30:52.202Z,8.93
2019-05-23T01:31:52.201Z,8.91
2019-05-23T01:32:52.183Z,8.90
2019-05-23T01:33:52.172Z,8.88
2019-05-23T01:34:52.199Z,8.88
2019-05-23T01:35:52.172Z,8.87
2019-05-23T01:36:52.121Z,8.86
2019-05-23T01:37:52.297Z,8.84
2019-05-23T01:38:52.110Z,8.86
2019-05-23T01:39:52.103Z,8.86
2019-05-23T01:40:52.101Z,8.84
2019-05-23T01:41:52.097Z,8.84
2019-05-23T01:42:52.066Z,8.83
2019-05-23T01:43:52.097Z,8.83
2019-05-23T01:44:52.038Z,8.78
2019-05-23T01:45:52.038Z,8.76
2019-05-23T01:46:52.040Z,8.72
2019-05-23T01:47:52.009Z,8.72
2019-05-23T01:48:52.048Z,8.71
2019-05-23T01:49:51.990Z,8.68
2019-05-23T01:50:52.050Z,8.66
2019-05-23T01:51:51.975Z,8.63
2019-05-23T01:52:51.959Z,8.62
2019-05-23T01:53:51.988Z,8.62
2019-05-23T01:54:51.948Z,8.62
2019-05-23T01:55:51.918Z,8.60
2019-05-23T01:56:51.909Z,8.57
2019-05-23T01:57:51.912Z,8.57
2019-05-23T01:58:51.968Z,8.57
2019-05-23T02:00:08.244Z,8.53
2019-05-23T02:00:52.881Z,8.53
2019-05-23T02:01:51.877Z,8.51
2019-05-23T02:02:51.862Z,8.50
2019-05-23T02:03:51.840Z,8.50
2019-05-23T02:04:51.862Z,8.50
2019-05-23T02:05:51.828Z,8.48
2019-05-23T02:06:51.801Z,8.48
2019-05-23T02:07:51.820Z,8.48
2019-05-23T02:08:51.779Z,8.50
2019-05-23T02:09:51.775Z,8.47
2019-05-23T02:10:51.805Z,8.45
2019-05-23T02:11:51.794Z,8.42
2019-05-23T02:12:51.737Z,8.40
2019-05-23T02:13:51.787Z,8.39
2019-05-23T02:14:51.735Z,8.35
2019-05-23T02:15:51.744Z,8.30
2019-05-23T02:16:51.689Z,8.29
2019-05-23T02:17:51.713Z,8.28
2019-05-23T02:18:51.679Z,8.26
2019-05-23T02:19:51.658Z,8.26
2019-05-23T02:20:51.657Z,8.25
2019-05-23T02:21:51.642Z,8.22
2019-05-23T02:22:51.632Z,8.22
2019-05-23T02:23:51.618Z,8.21
2019-05-23T02:24:51.618Z,8.20
2019-05-23T02:25:51.628Z,8.20
2019-05-23T02:26:51.608Z,8.20
2019-05-23T02:27:51.571Z,8.18
2019-05-23T02:28:51.569Z,8.21
2019-05-23T02:29:51.564Z,8.21
2019-05-23T02:30:51.550Z,8.21
2019-05-23T02:31:51.519Z,8.22
2019-05-23T02:32:51.521Z,8.21
2019-05-23T02:33:51.520Z,8.21
2019-05-23T02:34:51.513Z,8.20
2019-05-23T02:35:51.558Z,8.21
2019-05-23T02:36:51.478Z,8.20
2019-05-23T02:37:51.457Z,8.18
2019-05-23T02:38:51.553Z,8.20
2019-05-23T02:39:51.448Z,8.18
2019-05-23T02:40:51.442Z,8.15
2019-05-23T02:41:51.474Z,8.14
2019-05-23T02:42:51.427Z,8.11
2019-05-23T02:43:51.459Z,8.10
2019-05-23T02:44:51.397Z,8.08
2019-05-23T02:45:51.410Z,8.07
2019-05-23T02:46:51.397Z,8.03
2019-05-23T02:47:51.381Z,8.02
2019-05-23T02:48:51.353Z,7.99
2019-05-23T02:49:51.355Z,7.97
2019-05-23T02:50:51.341Z,7.97
2019-05-23T02:51:51.357Z,7.97
2019-05-23T02:52:51.298Z,7.96
2019-05-23T02:53:51.294Z,7.92
2019-05-23T02:54:51.277Z,7.90
2019-05-23T02:55:51.298Z,7.90
2019-05-23T02:56:51.281Z,7.90
2019-05-23T02:57:51.239Z,7.90
2019-05-23T02:58:51.239Z,7.90
2019-05-23T02:59:51.221Z,7.90
2019-05-23T03:00:54.838Z,7.92
2019-05-23T03:01:51.228Z,7.92
2019-05-23T03:02:51.187Z,7.92
2019-05-23T03:03:51.188Z,7.90
2019-05-23T03:04:51.222Z,7.90
2019-05-23T03:05:51.173Z,7.92
2019-05-23T03:06:51.159Z,7.90
2019-05-23T03:07:51.148Z,7.90
2019-05-23T03:08:51.126Z,7.90
2019-05-23T03:09:51.118Z,7.90
2019-05-23T03:10:51.106Z,7.89
2019-05-23T03:11:51.086Z,7.89
2019-05-23T03:12:51.116Z,7.84
2019-05-23T03:13:51.075Z,7.81
2019-05-23T03:14:51.086Z,7.79
2019-05-23T03:15:51.045Z,7.78
2019-05-23T03:16:51.072Z,7.75
2019-05-23T03:17:51.027Z,7.72
2019-05-23T03:18:51.026Z,7.75
2019-05-23T03:19:51.008Z,7.75
2019-05-23T03:20:51.005Z,7.78
2019-05-23T03:21:51.023Z,7.77
2019-05-23T03:22:50.988Z,7.71
2019-05-23T03:23:50.968Z,7.69
2019-05-23T03:24:50.964Z,7.67
2019-05-23T03:25:50.946Z,7.66
2019-05-23T03:26:50.990Z,7.62
2019-05-23T03:27:50.925Z,7.60
2019-05-23T03:28:50.924Z,7.62
2019-05-23T03:29:50.925Z,7.66
2019-05-23T03:30:50.895Z,7.66
2019-05-23T03:31:50.898Z,7.66
2019-05-23T03:32:50.894Z,7.67
2019-05-23T03:33:50.887Z,7.67
2019-05-23T03:34:50.852Z,7.66
2019-05-23T03:35:50.854Z,7.66
2019-05-23T03:36:50.822Z,7.66
2019-05-23T03:37:50.803Z,7.63
2019-05-23T03:38:50.825Z,7.67
2019-05-23T03:39:50.854Z,7.71
2019-05-23T03:40:50.812Z,7.75
2019-05-23T03:41:50.777Z,7.78
2019-05-23T03:42:50.765Z,7.79
2019-05-23T03:43:50.759Z,7.82
2019-05-23T03:44:50.756Z,7.84
2019-05-23T03:45:50.727Z,7.84
2019-05-23T03:46:50.761Z,7.89
2019-05-23T03:47:50.736Z,7.87
2019-05-23T03:48:50.715Z,7.90
2019-05-23T03:49:50.685Z,7.92
2019-05-23T03:50:50.714Z,7.92
2019-05-23T03:51:50.676Z,7.93
2019-05-23T03:52:50.683Z,7.92
2019-05-23T03:53:50.741Z,7.90
2019-05-23T03:54:50.641Z,7.92
2019-05-23T03:55:50.614Z,7.92
2019-05-23T03:56:50.615Z,7.94
2019-05-23T03:57:50.633Z,7.96
2019-05-23T03:58:50.633Z,7.99
2019-05-23T03:59:50.633Z,8.00
2019-05-23T04:00:50.583Z,8.02
2019-05-23T04:01:50.594Z,8.03
2019-05-23T04:02:50.580Z,8.03
2019-05-23T04:03:50.532Z,8.03
2019-05-23T04:04:50.540Z,8.03
2019-05-23T04:05:50.562Z,8.07
2019-05-23T04:06:50.504Z,8.10
2019-05-23T04:07:50.513Z,8.11
2019-05-23T04:08:50.490Z,8.15
2019-05-23T04:09:50.522Z,8.17
2019-05-23T04:10:51.863Z,8.15
2019-05-23T04:11:50.477Z,8.18
2019-05-23T04:12:50.443Z,8.22
2019-05-23T04:13:50.552Z,8.26
2019-05-23T04:14:50.434Z,8.30
2019-05-23T04:15:50.418Z,8.30
2019-05-23T04:16:50.418Z,8.30
2019-05-23T04:17:50.414Z,8.30
2019-05-23T04:18:50.363Z,8.30
2019-05-23T04:19:50.353Z,8.33
2019-05-23T04:20:50.345Z,8.37
2019-05-23T04:21:50.397Z,8.40
2019-05-23T04:22:50.325Z,8.42
2019-05-23T04:23:50.313Z,8.44
2019-05-23T04:24:50.303Z,8.47
2019-05-23T04:25:50.361Z,8.48
2019-05-23T04:26:50.287Z,8.51
2019-05-23T04:27:50.262Z,8.54
2019-05-23T04:28:50.278Z,8.54
2019-05-23T04:29:50.245Z,8.54
2019-05-23T04:30:51.082Z,8.55
2019-05-23T04:32:06.128Z,8.58
2019-05-23T04:32:51.223Z,8.58
2019-05-23T04:33:50.206Z,8.58
2019-05-23T04:34:50.180Z,8.62
2019-05-23T04:35:50.192Z,8.65
2019-05-23T04:36:50.172Z,8.71
2019-05-23T04:37:50.154Z,8.76
2019-05-23T04:38:50.155Z,8.79
2019-05-23T04:39:50.131Z,8.79
2019-05-23T04:40:50.152Z,8.84
2019-05-23T04:41:50.123Z,8.83
2019-05-23T04:42:50.102Z,8.83
2019-05-23T04:43:50.091Z,8.83
2019-05-23T04:44:50.105Z,8.84
2019-05-23T04:45:50.102Z,8.84
2019-05-23T04:46:50.173Z,8.86
2019-05-23T04:47:50.097Z,8.87
2019-05-23T04:48:50.051Z,8.90
2019-05-23T04:49:50.021Z,8.90
2019-05-23T04:50:50.031Z,8.88
2019-05-23T04:51:50.025Z,8.88
2019-05-23T04:52:50.019Z,8.90
2019-05-23T04:53:50.020Z,8.90
2019-05-23T04:54:49.987Z,8.94
2019-05-23T04:55:49.980Z,8.96
2019-05-23T04:56:49.941Z,8.96
2019-05-23T04:57:49.970Z,8.97
2019-05-23T04:58:49.955Z,8.99
2019-05-23T04:59:49.932Z,9.02
2019-05-23T05:00:49.899Z,9.02
2019-05-23T05:01:49.941Z,9.06
2019-05-23T05:02:49.949Z,9.10
2019-05-23T05:03:49.882Z,9.15
2019-05-23T05:04:49.920Z,9.15
2019-05-23T05:05:49.886Z,9.13
2019-05-23T05:06:49.849Z,9.16
2019-05-23T05:07:49.844Z,9.13
2019-05-23T05:08:49.837Z,9.15
2019-05-23T05:09:49.820Z,9.18
2019-05-23T05:10:49.798Z,9.23
2019-05-23T05:11:49.792Z,9.28
2019-05-23T05:12:49.788Z,9.31
2019-05-23T05:13:49.772Z,9.34
2019-05-23T05:14:49.766Z,9.39
2019-05-23T05:15:49.780Z,9.40
2019-05-23T05:16:49.747Z,9.43
2019-05-23T05:17:49.736Z,9.43
2019-05-23T05:18:49.735Z,9.46
2019-05-23T05:19:49.725Z,9.50
2019-05-23T05:20:49.708Z,9.56
2019-05-23T05:21:49.727Z,9.61
2019-05-23T05:22:49.699Z,9.66
2019-05-23T05:23:49.677Z,9.70
2019-05-23T05:24:49.648Z,9.75
2019-05-23T05:25:49.673Z,9.78
2019-05-23T05:26:49.635Z,9.82
2019-05-23T05:27:49.637Z,9.89
2019-05-23T05:28:49.625Z,9.94
2019-05-23T05:29:49.624Z,10.00
2019-05-23T05:30:49.587Z,10.06
2019-05-23T05:31:49.583Z,10.15
2019-05-23T05:32:49.583Z,10.21
2019-05-23T05:33:49.546Z,10.28
2019-05-23T05:34:49.592Z,10.32
2019-05-23T05:35:49.541Z,10.40
2019-05-23T05:36:49.567Z,10.44
2019-05-23T05:37:49.717Z,10.52
2019-05-23T05:38:49.497Z,10.59
2019-05-23T05:39:49.484Z,10.63
2019-05-23T05:40:49.522Z,10.71
2019-05-23T05:41:49.466Z,10.78
2019-05-23T05:42:49.456Z,10.84
2019-05-23T05:43:49.471Z,10.91
2019-05-23T05:44:49.446Z,10.96
2019-05-23T05:45:49.437Z,11.01
2019-05-23T05:46:49.468Z,11.11
2019-05-23T05:47:49.438Z,11.20
2019-05-23T05:48:49.407Z,11.28
2019-05-23T05:49:49.420Z,11.36
2019-05-23T05:50:49.367Z,11.39
2019-05-23T05:51:49.367Z,11.47
2019-05-23T05:52:49.353Z,11.52
2019-05-23T05:53:49.447Z,11.59
2019-05-23T05:54:49.335Z,11.64
2019-05-23T05:55:49.314Z,11.72
2019-05-23T05:56:49.322Z,11.78
2019-05-23T05:57:49.309Z,11.86
2019-05-23T05:58:49.297Z,11.90
2019-05-23T05:59:49.286Z,11.97
2019-05-23T06:00:49.296Z,12.04
2019-05-23T06:01:49.245Z,12.08
2019-05-23T06:03:03.467Z,12.13
2019-05-23T06:03:50.237Z,12.21
2019-05-23T06:04:49.233Z,12.29
2019-05-23T06:05:49.223Z,12.34
2019-05-23T06:06:50.207Z,12.41
2019-05-23T06:07:49.184Z,12.48
2019-05-23T06:08:49.218Z,12.52
2019-05-23T06:09:49.196Z,12.59
2019-05-23T06:10:49.189Z,12.66
2019-05-23T06:11:49.142Z,12.71
2019-05-23T06:12:49.134Z,12.75
2019-05-23T06:13:49.174Z,12.85
2019-05-23T06:14:49.129Z,12.87
2019-05-23T06:15:49.158Z,12.93
2019-05-23T06:16:49.098Z,12.95
2019-05-23T06:17:49.075Z,13.02
2019-05-23T06:18:49.094Z,13.03
2019-05-23T06:19:49.057Z,13.07
2019-05-23T06:20:49.106Z,13.14
2019-05-23T06:21:49.052Z,13.18
2019-05-23T06:22:49.016Z,13.24
2019-05-23T06:23:49.013Z,13.29
2019-05-23T06:24:53.688Z,13.38
2019-05-23T06:25:50.003Z,13.44
2019-05-23T06:26:48.984Z,13.51
2019-05-23T06:27:48.975Z,13.56
2019-05-23T06:28:49.010Z,13.61
2019-05-23T06:29:48.954Z,13.65
2019-05-23T06:30:48.948Z,13.67
2019-05-23T06:31:48.940Z,13.71
2019-05-23T06:32:49.003Z,13.76
2019-05-23T06:33:48.905Z,13.80
2019-05-23T06:34:48.945Z,13.84
2019-05-23T06:35:48.873Z,13.91
2019-05-23T06:36:48.885Z,13.95
2019-05-23T06:37:48.864Z,13.99
2019-05-23T06:38:48.843Z,14.02
2019-05-23T06:39:48.907Z,14.09
2019-05-23T06:40:48.823Z,14.10
2019-05-23T06:41:48.812Z,14.16
2019-05-23T06:42:50.956Z,14.20
2019-05-23T06:43:48.791Z,14.24
2019-05-23T06:44:48.783Z,14.28
2019-05-23T06:45:48.762Z,14.31
2019-05-23T06:46:48.781Z,14.38
2019-05-23T06:47:48.763Z,14.42
2019-05-23T06:48:48.743Z,14.47
2019-05-23T06:49:48.749Z,14.52
2019-05-23T06:50:48.725Z,14.52
2019-05-23T06:51:48.714Z,14.57
2019-05-23T06:52:48.720Z,14.64
2019-05-23T06:53:48.693Z,14.68
2019-05-23T06:54:48.709Z,14.72
2019-05-23T06:55:48.699Z,14.78
2019-05-23T06:56:48.710Z,14.84
2019-05-23T06:57:48.655Z,14.88
2019-05-23T06:58:48.639Z,14.90
2019-05-23T06:59:48.636Z,14.95
2019-05-23T07:00:48.794Z,14.99
2019-05-23T07:01:48.601Z,15.02
2019-05-23T07:02:48.610Z,15.06
2019-05-23T07:03:48.597Z,15.09
2019-05-23T07:04:48.581Z,15.17
2019-05-23T07:05:48.585Z,15.24
2019-05-23T07:06:48.565Z,15.27
2019-05-23T07:07:48.556Z,15.30
2019-05-23T07:08:48.523Z,15.36
2019-05-23T07:09:48.512Z,15.41
2019-05-23T07:10:48.512Z,15.39
2019-05-23T07:11:48.506Z,15.43
2019-05-23T07:12:48.544Z,15.48
2019-05-23T07:13:48.481Z,15.54
2019-05-23T07:14:48.456Z,15.57
2019-05-23T07:15:48.467Z,15.59
2019-05-23T07:16:50.395Z,15.63
2019-05-23T07:17:48.424Z,15.68
2019-05-23T07:18:48.485Z,15.76
2019-05-23T07:19:48.411Z,15.81
2019-05-23T07:20:48.427Z,15.84
2019-05-23T07:21:48.397Z,15.89
2019-05-23T07:22:48.372Z,15.92
2019-05-23T07:23:48.370Z,15.94
2019-05-23T07:24:58.126Z,15.99
2019-05-23T07:25:49.341Z,16.01
2019-05-23T07:26:48.366Z,16.06
2019-05-23T07:27:48.320Z,16.11
2019-05-23T07:28:48.302Z,16.14
2019-05-23T07:29:48.310Z,16.18
2019-05-23T07:30:48.307Z,16.26
2019-05-23T07:31:48.323Z,16.30
2019-05-23T07:32:48.268Z,16.33
2019-05-23T07:34:01.250Z,16.35
2019-05-23T07:34:49.279Z,16.40
2019-05-23T07:35:48.261Z,16.44
2019-05-23T07:36:48.270Z,16.45
2019-05-23T07:37:48.213Z,16.50
2019-05-23T07:38:48.200Z,16.52
2019-05-23T07:39:48.184Z,16.58
2019-05-23T07:40:48.203Z,16.62
2019-05-23T07:41:48.178Z,16.67
2019-05-23T07:42:48.210Z,16.74
2019-05-23T07:43:48.168Z,16.78
2019-05-23T07:44:48.727Z,16.83
2019-05-23T07:45:48.120Z,16.90
2019-05-23T07:46:48.131Z,16.98
2019-05-23T07:47:48.157Z,17.03
2019-05-23T07:48:48.105Z,17.07
2019-05-23T07:49:48.092Z,17.13
2019-05-23T07:50:48.090Z,17.13
2019-05-23T07:51:48.072Z,17.17
2019-05-23T07:52:48.080Z,17.22
2019-05-23T07:53:48.069Z,17.25
2019-05-23T07:54:48.042Z,17.30
2019-05-23T07:55:48.028Z,17.35
2019-05-23T07:56:48.007Z,17.38
2019-05-23T07:57:48.026Z,17.41
2019-05-23T07:58:48.005Z,17.43
2019-05-23T07:59:48.003Z,17.47
2019-05-23T08:00:48.018Z,17.43
2019-05-23T08:01:47.950Z,17.44
2019-05-23T08:02:47.949Z,17.47
2019-05-23T08:03:47.945Z,17.51
2019-05-23T08:04:47.910Z,17.55
2019-05-23T08:05:47.920Z,17.63
2019-05-23T08:06:48.940Z,17.69
2019-05-23T08:07:48.122Z,17.73
2019-05-23T08:08:47.923Z,17.79
2019-05-23T08:09:47.870Z,17.82
2019-05-23T08:10:47.859Z,17.85
2019-05-23T08:11:47.843Z,17.82
2019-05-23T08:12:47.838Z,17.82
2019-05-23T08:13:47.853Z,17.84
2019-05-23T08:14:47.805Z,17.89
2019-05-23T08:15:47.796Z,17.91
2019-05-23T08:16:47.804Z,17.95
2019-05-23T08:17:47.830Z,18.00
2019-05-23T08:18:47.773Z,18.04
2019-05-23T08:19:50.150Z,18.07
2019-05-23T08:20:47.740Z,18.12
2019-05-23T08:21:47.781Z,18.13
2019-05-23T08:22:47.740Z,18.21
2019-05-23T08:23:47.755Z,18.25
2019-05-23T08:24:51.077Z,18.29
2019-05-23T08:25:47.712Z,18.33
2019-05-23T08:26:47.719Z,18.39
2019-05-23T08:27:47.689Z,18.40
2019-05-23T08:29:21.786Z,18.42
2019-05-23T08:29:48.662Z,18.46
2019-05-23T08:30:47.631Z,18.52
2019-05-23T08:31:47.633Z,18.52
2019-05-23T08:32:47.660Z,18.47
2019-05-23T08:33:47.670Z,18.40
2019-05-23T08:34:47.599Z,18.40
2019-05-23T08:35:47.584Z,18.43
2019-05-23T08:36:47.590Z,18.47
2019-05-23T08:37:47.577Z,18.50
2019-05-23T08:38:47.580Z,18.54
2019-05-23T08:39:47.595Z,18.57
2019-05-23T08:40:47.553Z,18.61
2019-05-23T08:41:47.521Z,18.64
2019-05-23T08:42:47.782Z,18.70
2019-05-23T08:43:47.520Z,18.74
2019-05-23T08:44:47.494Z,18.76
2019-05-23T08:45:47.490Z,18.73
2019-05-23T08:46:47.520Z,18.74
2019-05-23T08:47:47.464Z,18.76
2019-05-23T08:48:47.461Z,18.72
2019-05-23T08:49:47.465Z,18.73
2019-05-23T08:50:51.220Z,18.77
2019-05-23T08:51:47.463Z,18.80
2019-05-23T08:52:47.413Z,18.83
2019-05-23T08:53:47.402Z,18.84
2019-05-23T08:54:47.390Z,18.90
2019-05-23T08:55:47.398Z,18.97
2019-05-23T08:56:47.361Z,19.02
2019-05-23T08:57:47.488Z,19.10
2019-05-23T08:58:47.345Z,19.13
2019-05-23T08:59:47.343Z,19.15
2019-05-23T09:00:47.336Z,19.15
2019-05-23T09:01:47.303Z,19.18
2019-05-23T09:02:47.311Z,19.20
2019-05-23T09:03:47.339Z,19.21
2019-05-23T09:05:03.664Z,19.18
2019-05-23T09:05:48.292Z,19.23
2019-05-23T09:06:47.252Z,19.32
2019-05-23T09:07:47.241Z,19.40
2019-05-23T09:08:47.235Z,19.48
2019-05-23T09:09:47.489Z,19.54
2019-05-23T09:10:47.215Z,19.55
2019-05-23T09:11:47.212Z,19.53
2019-05-23T09:12:47.249Z,19.47
2019-05-23T09:13:47.182Z,19.38
2019-05-23T09:14:47.270Z,19.33
2019-05-23T09:15:47.150Z,19.35
2019-05-23T09:16:47.149Z,19.38
2019-05-23T09:17:53.089Z,19.43
2019-05-23T09:18:48.261Z,19.38
2019-05-23T09:19:47.251Z,19.38
2019-05-23T09:20:47.115Z,19.43
2019-05-23T09:21:47.160Z,19.47
2019-05-23T09:22:47.109Z,19.51
2019-05-23T09:23:47.059Z,19.43
2019-05-23T09:24:47.070Z,19.43
2019-05-23T09:25:47.082Z,19.38
2019-05-23T09:26:47.067Z,19.39
2019-05-23T09:27:47.034Z,19.43
2019-05-23T09:28:47.013Z,19.53
2019-05-23T09:29:47.020Z,19.57
2019-05-23T09:30:47.010Z,19.61
2019-05-23T09:31:46.982Z,19.70
2019-05-23T09:32:46.980Z,19.80
2019-05-23T09:33:46.961Z,19.91
2019-05-23T09:34:46.952Z,19.98
2019-05-23T09:35:46.954Z,20.06
2019-05-23T09:36:46.920Z,20.13
2019-05-23T09:37:46.922Z,20.10
2019-05-23T09:38:46.916Z,20.09
2019-05-23T09:39:46.892Z,20.06
2019-05-23T09:40:46.910Z,20.06
2019-05-23T09:41:46.880Z,20.02
2019-05-23T09:42:46.883Z,19.94
2019-05-23T09:43:46.842Z,19.94
2019-05-23T09:44:46.866Z,19.95
2019-05-23T09:45:46.834Z,20.00
2019-05-23T09:46:46.830Z,20.03
2019-05-23T09:47:51.073Z,20.10
2019-05-23T09:48:46.808Z,20.13
2019-05-23T09:49:53.806Z,20.15
2019-05-23T09:50:47.788Z,20.18
2019-05-23T09:51:47.953Z,20.27
2019-05-23T09:52:46.759Z,20.23
2019-05-23T09:53:47.743Z,20.21
2019-05-23T09:54:46.738Z,20.18
2019-05-23T09:55:46.731Z,20.10
2019-05-23T09:56:46.724Z,20.03
2019-05-23T09:57:46.701Z,20.02
2019-05-23T09:58:46.695Z,20.03
2019-05-23T09:59:46.682Z,20.05
2019-05-23T10:00:46.679Z,20.09
2019-05-23T10:01:46.729Z,20.12
2019-05-23T10:02:46.650Z,20.18
2019-05-23T10:03:46.645Z,20.18
2019-05-23T10:04:46.640Z,20.10
2019-05-23T10:05:46.628Z,20.13
2019-05-23T10:06:46.626Z,20.18
2019-05-23T10:07:46.618Z,20.21
2019-05-23T10:08:46.596Z,20.30
2019-05-23T10:09:46.571Z,20.35
2019-05-23T10:10:46.581Z,20.43
2019-05-23T10:11:46.581Z,20.39
2019-05-23T10:12:46.553Z,20.46
2019-05-23T10:13:46.535Z,20.50
2019-05-23T10:14:46.521Z,20.56
2019-05-23T10:15:46.565Z,20.61
2019-05-23T10:16:46.524Z,20.69
2019-05-23T10:17:46.490Z,20.79
2019-05-23T10:18:46.470Z,20.86
2019-05-23T10:19:46.471Z,20.95
2019-05-23T10:20:46.486Z,21.01
2019-05-23T10:21:46.447Z,21.08
2019-05-23T10:22:46.442Z,21.09
2019-05-23T10:23:46.422Z,21.16
2019-05-23T10:24:46.412Z,21.06
2019-05-23T10:25:46.400Z,20.96
2019-05-23T10:26:46.381Z,21.04
2019-05-23T10:27:46.401Z,21.05
2019-05-23T10:28:46.361Z,21.09
2019-05-23T10:29:46.364Z,21.19
2019-05-23T10:30:46.343Z,21.24
2019-05-23T10:31:46.332Z,21.26
2019-05-23T10:32:46.341Z,21.26
2019-05-23T10:33:46.310Z,21.17
2019-05-23T10:34:46.408Z,21.16
2019-05-23T10:35:59.999Z,21.20
2019-05-23T10:36:47.281Z,21.11
2019-05-23T10:37:46.280Z,20.99
2019-05-23T10:38:46.269Z,20.83
2019-05-23T10:39:46.291Z,20.71
2019-05-23T10:40:46.258Z,20.74
2019-05-23T10:41:46.246Z,20.80
2019-05-23T10:42:46.211Z,20.95
2019-05-23T10:43:46.223Z,21.06
2019-05-23T10:44:46.198Z,21.17
2019-05-23T10:45:46.181Z,21.27
2019-05-23T10:46:46.188Z,21.35
2019-05-23T10:47:46.164Z,21.34
2019-05-23T10:48:46.174Z,21.39
2019-05-23T10:49:46.155Z,21.46
2019-05-23T10:50:46.184Z,21.56
2019-05-23T10:51:46.123Z,21.61
2019-05-23T10:52:46.170Z,21.75
2019-05-23T10:53:46.117Z,21.88
2019-05-23T10:54:46.092Z,21.88
2019-05-23T10:55:46.072Z,21.90
2019-05-23T10:56:46.089Z,21.66
2019-05-23T10:57:46.088Z,21.61
2019-05-23T10:58:46.059Z,21.59
2019-05-23T10:59:46.040Z,21.56
2019-05-23T11:00:46.023Z,21.57
2019-05-23T11:01:46.026Z,21.61
2019-05-23T11:02:46.146Z,21.75
2019-05-23T11:03:46.002Z,21.85
2019-05-23T11:04:45.982Z,21.82
2019-05-23T11:05:45.973Z,21.76
2019-05-23T11:06:45.975Z,21.75
2019-05-23T11:07:45.942Z,21.75
2019-05-23T11:08:45.935Z,21.79
2019-05-23T11:09:45.942Z,21.92
2019-05-23T11:10:45.913Z,22.07
2019-05-23T11:11:45.916Z,22.16
2019-05-23T11:12:45.891Z,22.20
2019-05-23T11:13:45.891Z,22.14
2019-05-23T11:14:45.884Z,22.10
2019-05-23T11:15:45.883Z,22.17
2019-05-23T11:16:45.861Z,22.22
2019-05-23T11:17:45.853Z,22.23
2019-05-23T11:18:45.833Z,22.20
2019-05-23T11:19:45.842Z,22.20
2019-05-23T11:20:45.813Z,22.28
2019-05-23T11:21:45.827Z,22.35
2019-05-23T11:22:45.792Z,22.44
2019-05-23T11:23:45.793Z,22.50
2019-05-23T11:24:45.794Z,22.50
2019-05-23T11:25:45.752Z,22.44
2019-05-23T11:26:45.741Z,22.49
2019-05-23T11:27:45.732Z,22.57
2019-05-23T11:28:45.746Z,22.65
2019-05-23T11:29:45.734Z,22.64
2019-05-23T11:30:45.713Z,22.72
2019-05-23T11:31:45.725Z,22.68
2019-05-23T11:32:45.745Z,22.69
2019-05-23T11:33:45.666Z,22.69
2019-05-23T11:34:45.663Z,22.68
2019-05-23T11:35:45.666Z,22.64
2019-05-23T11:36:45.643Z,22.64
2019-05-23T11:37:45.633Z,22.72
2019-05-23T11:38:45.614Z,22.65
2019-05-23T11:39:49.489Z,22.69
2019-05-23T11:40:46.616Z,22.77
2019-05-23T11:41:45.603Z,22.86
2019-05-23T11:42:45.572Z,22.89
2019-05-23T11:43:45.564Z,22.87
2019-05-23T11:44:45.566Z,22.78
2019-05-23T11:45:46.431Z,22.82
2019-05-23T11:46:45.533Z,22.68
2019-05-23T11:47:45.537Z,22.56
2019-05-23T11:48:45.513Z,22.56
2019-05-23T11:49:45.890Z,22.57
2019-05-23T11:50:45.493Z,22.65
2019-05-23T11:51:45.483Z,22.74
2019-05-23T11:52:45.469Z,22.78
2019-05-23T11:53:50.351Z,22.64
2019-05-23T11:54:46.455Z,22.53
2019-05-23T11:55:45.457Z,22.41
2019-05-23T11:56:45.446Z,22.34
2019-05-23T11:57:45.417Z,22.27
2019-05-23T11:58:45.434Z,22.17
2019-05-23T11:59:45.434Z,22.16
2019-05-23T12:00:45.401Z,22.29
2019-05-23T12:01:45.385Z,22.44
2019-05-23T12:02:45.374Z,22.54
2019-05-23T12:03:45.368Z,22.57
2019-05-23T12:04:45.348Z,22.59
2019-05-23T12:05:45.324Z,22.65
2019-05-23T12:06:55.469Z,22.71
2019-05-23T12:07:46.304Z,22.65
2019-05-23T12:08:45.307Z,22.67
2019-05-23T12:09:45.306Z,22.64
2019-05-23T12:10:45.283Z,22.57
2019-05-23T12:11:45.269Z,22.35
2019-05-23T12:12:45.294Z,22.31
2019-05-23T12:13:45.284Z,22.31
2019-05-23T12:14:45.224Z,22.37
2019-05-23T12:15:45.224Z,22.44
2019-05-23T12:16:45.223Z,22.52
2019-05-23T12:17:45.225Z,22.69
2019-05-23T12:18:45.184Z,22.93
2019-05-23T12:19:45.209Z,23.12
2019-05-23T12:20:45.171Z,23.23
2019-05-23T12:21:45.183Z,23.39
2019-05-23T12:22:45.247Z,23.47
2019-05-23T12:23:45.202Z,23.57
2019-05-23T12:24:45.139Z,23.65
2019-05-23T12:25:45.105Z,23.61
2019-05-23T12:26:45.125Z,23.70
2019-05-23T12:27:45.123Z,23.77
2019-05-23T12:28:45.095Z,23.82
2019-05-23T12:29:45.103Z,23.92
2019-05-23T12:30:45.064Z,23.92
2019-05-23T12:31:49.098Z,24.00
2019-05-23T12:32:45.523Z,24.05
2019-05-23T12:33:45.043Z,24.13
2019-05-23T12:35:07.963Z,24.16
2019-05-23T12:35:46.006Z,24.23
2019-05-23T12:36:45.036Z,24.34
2019-05-23T12:37:44.998Z,24.42
2019-05-23T12:38:45.007Z,24.34
2019-05-23T12:39:44.974Z,24.31
2019-05-23T12:40:44.955Z,24.39
2019-05-23T12:41:44.962Z,24.45
2019-05-23T12:42:44.953Z,24.52
2019-05-23T12:43:44.938Z,24.59
2019-05-23T12:44:44.905Z,24.61
2019-05-23T12:45:44.905Z,24.59
2019-05-23T12:46:44.901Z,24.57
2019-05-23T12:47:44.932Z,24.54
2019-05-23T12:48:44.892Z,24.57
2019-05-23T12:49:44.895Z,24.60
2019-05-23T12:50:44.855Z,24.57
2019-05-23T12:51:44.875Z,24.47
2019-05-23T12:52:44.877Z,24.42
2019-05-23T12:53:44.818Z,24.13
2019-05-23T12:54:44.834Z,24.02
2019-05-23T12:55:44.828Z,24.13
2019-05-23T12:56:48.531Z,24.24
2019-05-23T12:57:44.794Z,24.27
2019-05-23T12:58:44.762Z,24.31
2019-05-23T12:59:44.999Z,24.38
2019-05-23T13:00:44.986Z,24.50
2019-05-23T13:01:45.770Z,24.56
2019-05-23T13:02:45.111Z,24.61